KPWK/PWK METAR and TAF weather

Enter ICAO airport designator
Station Type Date Time Source
KPWK METAR 2018/12/17 16:52 UTC NOAA

KPWK 171652Z 31008KT 10SM CLR 03/M07 A3021 RMK AO2 SLP236 T00331067


Station Type Date Time Source
KPWK Decoded METAR 2018/12/17 16:52 UTC NOAA

CHICAGO EXECUTIVE AIRPORT, IL, United States (KPWK) 42-07N 087-54W 203M
Dec 17, 2018 - 11:52 AM EST / 2018.12.17 1652 UTC
Wind: from the NW (310 degrees) at 9 MPH (8 KT):0
Visibility: 10 mile(s):0
Sky conditions: clear
Temperature: 37.9 F (3.3 C)
Dew Point: 19.9 F (-6.7 C)
Relative Humidity: 47%
Pressure (altimeter): 30.21 in. Hg (1023 hPa)
ob: KPWK 171652Z 31008KT 10SM CLR 03/M07 A3021 RMK AO2 SLP236 T00331067
cycle: 17

Station Type Date Time Source
KPWK TAF UTC NOAA

Error!


Example: see airport list